Terminal Aerodrome Forecast
Issued by NWS

Home | Current Version | Previous Version | Text Only | Print | Product List | Glossary On
Versions: 1 2 3 4 5 6 7 8 9 10 11 12
000
FTUS41 KPBZ 260528
TAFMGW
TAF
KMGW 260528Z 2606/2706 VRB04KT P6SM BKN100
     FM261000 VRB04KT P6SM VCSH BKN035
     FM261700 20006KT P6SM VCTS BKN040CB
     FM270300 17005KT P6SM VCSH BKN100=

USA.gov is the U.S. government's official web portal to all federal, state and local government web resources and services.